createdAt,value
2022-12-13T00:01:47.231Z,97136.63
2022-12-13T00:04:15.805Z,97128.31
2022-12-13T00:06:44.223Z,97142.25
2022-12-13T00:09:14.746Z,97129.53
2022-12-13T00:11:43.129Z,97141.03
2022-12-13T00:14:14.471Z,97136.38
2022-12-13T00:16:45.707Z,97121.03
2022-12-13T00:19:14.165Z,97123.22
2022-12-13T00:21:42.095Z,97126.38
2022-12-13T00:24:10.587Z,97133.56
2022-12-13T00:26:38.789Z,97133.38
2022-12-13T00:29:09.045Z,97133.78
2022-12-13T00:32:00.094Z,97140.19
2022-12-13T00:34:27.139Z,97133.38
2022-12-13T00:36:55.323Z,97139.88
2022-12-13T00:39:24.153Z,97129.06
2022-12-13T00:41:52.122Z,97127.13
2022-12-13T00:44:20.893Z,97129.53
2022-12-13T00:46:51.888Z,97132.75
2022-12-13T00:49:20.463Z,97116.81
2022-12-13T00:51:49.850Z,97123.91
2022-12-13T00:54:18.769Z,97108.16
2022-12-13T00:56:46.900Z,97118.66
2022-12-13T00:59:16.795Z,97130.06
2022-12-13T01:01:45.445Z,97119.59
2022-12-13T01:04:15.321Z,97114.34
2022-12-13T01:06:45.866Z,97102.72
2022-12-13T01:09:18.694Z,97107.16
2022-12-13T01:11:47.967Z,97108.72
2022-12-13T01:14:16.667Z,97106.44
2022-12-13T01:16:44.903Z,97111.66
2022-12-13T01:19:14.798Z,97097.91
2022-12-13T01:21:42.749Z,97102.78
2022-12-13T01:24:11.039Z,97106.69
2022-12-13T01:26:39.143Z,97103.81
2022-12-13T01:29:07.698Z,97103.00
2022-12-13T01:31:35.900Z,97103.97
2022-12-13T01:34:10.838Z,97110.53
2022-12-13T01:36:41.719Z,97105.53
2022-12-13T01:39:15.100Z,97110.25
2022-12-13T01:41:46.140Z,97107.97
2022-12-13T01:44:51.707Z,97101.31
2022-12-13T01:47:26.004Z,97105.19
2022-12-13T01:49:58.479Z,97106.69
2022-12-13T01:52:31.575Z,97113.22
2022-12-13T01:55:15.694Z,97103.97
2022-12-13T01:57:47.649Z,97090.13
2022-12-13T02:00:17.347Z,97105.13
2022-12-13T02:02:47.368Z,97095.53
2022-12-13T02:05:22.477Z,97097.47
2022-12-13T02:07:52.477Z,97106.38
2022-12-13T02:10:21.106Z,97103.31
2022-12-13T02:12:49.629Z,97099.31
2022-12-13T02:15:22.890Z,97102.31
2022-12-13T02:18:19.557Z,97093.00
2022-12-13T02:21:12.841Z,97092.81
2022-12-13T02:24:26.056Z,97087.66
2022-12-13T02:27:01.046Z,97082.13
2022-12-13T02:30:01.913Z,97094.03
2022-12-13T02:32:36.758Z,97089.88
2022-12-13T02:35:10.527Z,97090.16
2022-12-13T02:37:49.061Z,97073.88
2022-12-13T02:40:24.829Z,97089.53
2022-12-13T02:43:00.787Z,97090.56
2022-12-13T02:45:32.642Z,97085.03
2022-12-13T02:48:04.865Z,97083.31
2022-12-13T02:50:35.081Z,97072.53
2022-12-13T02:53:03.848Z,97080.13
2022-12-13T02:55:32.903Z,97078.44
2022-12-13T02:58:00.732Z,97072.59
2022-12-13T03:00:39.858Z,97080.63
2022-12-13T03:03:18.911Z,97067.94
2022-12-13T03:06:11.899Z,97069.63
2022-12-13T03:08:52.519Z,97063.91
2022-12-13T03:11:22.662Z,97074.66
2022-12-13T03:13:53.517Z,97080.03
2022-12-13T03:16:30.373Z,97075.03
2022-12-13T03:19:03.283Z,97076.53
2022-12-13T03:21:32.087Z,97063.88
2022-12-13T03:24:00.032Z,97081.28
2022-12-13T03:26:28.649Z,97076.16
2022-12-13T03:28:56.671Z,97062.88
2022-12-13T03:31:24.706Z,97062.66
2022-12-13T03:33:52.996Z,97063.50
2022-12-13T03:36:23.820Z,97063.44
2022-12-13T03:38:54.289Z,97064.81
2022-12-13T03:41:25.140Z,97058.78
2022-12-13T03:43:53.286Z,97056.19
2022-12-13T03:46:21.802Z,97054.22
2022-12-13T03:48:49.984Z,97056.34
2022-12-13T03:51:17.914Z,97054.41
2022-12-13T03:53:47.646Z,97044.72
2022-12-13T03:56:16.039Z,97051.91
2022-12-13T03:58:43.992Z,97051.22
2022-12-13T04:01:15.047Z,97049.47
2022-12-13T04:03:46.274Z,97051.59
2022-12-13T04:06:21.681Z,97054.56
2022-12-13T04:08:52.860Z,97051.75
2022-12-13T04:11:42.994Z,97058.56
2022-12-13T04:14:11.696Z,97050.94
2022-12-13T04:16:39.701Z,97053.06
2022-12-13T04:19:07.845Z,97054.47
2022-12-13T04:21:36.135Z,97039.03
2022-12-13T04:24:06.211Z,97054.88
2022-12-13T04:26:34.103Z,97042.28
2022-12-13T04:29:02.138Z,97051.84
2022-12-13T04:31:30.317Z,97049.41
2022-12-13T04:33:58.164Z,97049.41
2022-12-13T04:36:32.064Z,97051.72
2022-12-13T04:39:00.963Z,97029.59
2022-12-13T04:41:34.336Z,97060.56
2022-12-13T04:44:02.894Z,97047.66
2022-12-13T04:46:31.526Z,97044.25
2022-12-13T04:48:59.589Z,97048.09
2022-12-13T04:51:27.898Z,97038.56
2022-12-13T04:53:55.763Z,97050.22
2022-12-13T04:56:45.292Z,97024.97
2022-12-13T04:59:13.287Z,97032.31
2022-12-13T05:01:41.632Z,97032.16
2022-12-13T05:04:09.622Z,97029.78
2022-12-13T05:06:37.865Z,97039.13
2022-12-13T05:09:11.362Z,97022.78
2022-12-13T05:11:45.731Z,97036.81
2022-12-13T05:14:23.411Z,97032.06
2022-12-13T05:16:52.088Z,97048.09
2022-12-13T05:19:20.305Z,97038.59
2022-12-13T05:21:50.173Z,97047.72
2022-12-13T05:24:18.161Z,97048.72
2022-12-13T05:26:46.578Z,97035.25
2022-12-13T05:29:15.897Z,97050.84
2022-12-13T05:31:44.462Z,97046.47
2022-12-13T05:34:12.362Z,97048.59
2022-12-13T05:36:40.606Z,97042.88
2022-12-13T05:39:29.232Z,97042.69
2022-12-13T05:42:01.198Z,97041.28
2022-12-13T05:44:32.192Z,97045.56
2022-12-13T05:47:01.877Z,97042.44
2022-12-13T05:49:30.995Z,97034.06
2022-12-13T05:51:59.244Z,97040.53
2022-12-13T05:54:27.706Z,97025.47
2022-12-13T05:56:56.004Z,97045.47
2022-12-13T05:59:24.207Z,97044.41
2022-12-13T06:01:54.003Z,97046.16
2022-12-13T06:04:23.299Z,97042.66
2022-12-13T06:06:52.405Z,97034.81
2022-12-13T06:09:20.505Z,97026.19
2022-12-13T06:11:49.363Z,97032.47
2022-12-13T06:14:21.909Z,96994.63
2022-12-13T06:16:51.655Z,97031.13
2022-12-13T06:19:21.852Z,97030.47
2022-12-13T06:21:50.394Z,97033.84
2022-12-13T06:24:20.032Z,97033.28
2022-12-13T06:26:49.261Z,97025.47
2022-12-13T06:29:22.659Z,97029.31
2022-12-13T06:32:02.111Z,97031.44
2022-12-13T06:34:34.584Z,97023.97
2022-12-13T06:37:06.262Z,97035.25
2022-12-13T06:39:35.044Z,97030.28
2022-12-13T06:42:06.403Z,97033.28
2022-12-13T06:44:35.837Z,97036.34
2022-12-13T06:47:11.838Z,97033.56
2022-12-13T06:49:44.685Z,97024.63
2022-12-13T06:52:15.089Z,97037.19
2022-12-13T06:54:44.892Z,97031.38
2022-12-13T06:57:16.258Z,97032.47
2022-12-13T06:59:45.475Z,97033.28
2022-12-13T07:02:15.482Z,97032.28
2022-12-13T07:04:55.057Z,97002.13
2022-12-13T07:07:23.937Z,97024.22
2022-12-13T07:09:52.547Z,97009.03
2022-12-13T07:12:21.272Z,97016.81
2022-12-13T07:14:49.635Z,97026.28
2022-12-13T07:17:32.935Z,97019.81
2022-12-13T07:20:08.334Z,97017.94
2022-12-13T07:22:44.868Z,97026.91
2022-12-13T07:25:26.724Z,97038.75
2022-12-13T07:28:01.479Z,97021.84
2022-12-13T07:30:32.610Z,97036.56
2022-12-13T07:33:01.699Z,97045.16
2022-12-13T07:35:37.512Z,97057.69
2022-12-13T07:38:07.046Z,97057.06
2022-12-13T07:40:36.240Z,97020.19
2022-12-13T07:43:05.399Z,97046.81
2022-12-13T07:45:34.408Z,97061.81
2022-12-13T07:48:06.522Z,97053.44
2022-12-13T07:50:37.244Z,97068.16
2022-12-13T07:53:07.153Z,97042.13
2022-12-13T07:55:36.637Z,97045.06
2022-12-13T07:58:07.793Z,97062.56
2022-12-13T08:00:36.785Z,97071.94
2022-12-13T08:03:05.893Z,97078.72
2022-12-13T08:05:39.040Z,97069.84
2022-12-13T08:08:09.609Z,97074.34
2022-12-13T08:10:39.596Z,97074.13
2022-12-13T08:13:08.797Z,97077.78
2022-12-13T08:15:40.681Z,97067.69
2022-12-13T08:18:10.178Z,97077.91
2022-12-13T08:20:40.783Z,97055.50
2022-12-13T08:23:10.814Z,97059.63
2022-12-13T08:25:39.050Z,97060.53
2022-12-13T08:28:07.187Z,97067.94
2022-12-13T08:30:35.957Z,97060.59
2022-12-13T08:33:05.267Z,97056.06
2022-12-13T08:35:34.996Z,97085.50
2022-12-13T08:38:04.772Z,97082.44
2022-12-13T08:40:33.406Z,97071.78
2022-12-13T08:43:01.291Z,97046.41
2022-12-13T08:45:30.950Z,97037.44
2022-12-13T08:48:00.479Z,97036.28
2022-12-13T08:50:29.232Z,97026.00
2022-12-13T08:52:57.290Z,97032.22
2022-12-13T08:55:32.295Z,97012.38
2022-12-13T08:58:04.810Z,97023.38
2022-12-13T09:00:35.705Z,97032.28
2022-12-13T09:03:04.879Z,97054.97
2022-12-13T09:05:35.087Z,97063.06
2022-12-13T09:08:13.216Z,97060.09
2022-12-13T09:10:59.694Z,97065.00
2022-12-13T09:13:31.982Z,97054.50
2022-12-13T09:16:01.864Z,97066.91
2022-12-13T09:18:36.369Z,97073.84
2022-12-13T09:21:11.061Z,97067.69
2022-12-13T09:23:45.716Z,97072.00
2022-12-13T09:26:18.506Z,97064.88
2022-12-13T09:28:54.030Z,97046.25
2022-12-13T09:31:23.087Z,97065.69
2022-12-13T09:33:51.681Z,97051.56
2022-12-13T09:36:22.350Z,97053.34
2022-12-13T09:38:50.692Z,97059.56
2022-12-13T09:41:28.407Z,97073.97
2022-12-13T09:44:02.644Z,97059.16
2022-12-13T09:46:45.075Z,97061.19
2022-12-13T09:49:23.168Z,97038.31
2022-12-13T09:52:11.780Z,97047.16
2022-12-13T09:54:48.726Z,97030.78
2022-12-13T09:57:33.250Z,97055.69
2022-12-13T10:00:05.322Z,97047.63
2022-12-13T10:02:40.511Z,97055.41
2022-12-13T10:05:22.769Z,97049.38
2022-12-13T10:07:56.266Z,97052.34
2022-12-13T10:10:25.393Z,97042.75
2022-12-13T10:13:03.222Z,97053.19
2022-12-13T10:15:34.969Z,97041.44
2022-12-13T10:18:05.505Z,97041.59
2022-12-13T10:20:36.675Z,97042.88
2022-12-13T10:26:03.278Z,97026.78
2022-12-13T10:28:34.773Z,97004.63
2022-12-13T10:31:03.737Z,97018.41
2022-12-13T10:33:33.845Z,97026.88
2022-12-13T10:36:21.047Z,97021.59
2022-12-13T10:38:51.855Z,97018.66
2022-12-13T10:41:35.901Z,97000.53
2022-12-13T10:44:35.772Z,97012.00
2022-12-13T10:47:16.846Z,97027.53
2022-12-13T10:49:59.035Z,97022.97
2022-12-13T10:52:32.054Z,97012.22
2022-12-13T10:55:22.783Z,97004.06
2022-12-13T10:57:53.963Z,97005.03
2022-12-13T11:00:45.598Z,96987.28
2022-12-13T11:03:29.138Z,97000.88
2022-12-13T11:06:05.134Z,97008.72
2022-12-13T11:08:33.529Z,97005.13
2022-12-13T11:11:03.768Z,97004.66
2022-12-13T11:13:38.999Z,97005.59
2022-12-13T11:16:23.980Z,97001.59
2022-12-13T11:18:55.503Z,96985.22
2022-12-13T11:21:27.814Z,96994.09
2022-12-13T11:24:01.980Z,96994.56
2022-12-13T11:26:32.470Z,96991.31
2022-12-13T11:29:17.386Z,96981.97
2022-12-13T11:31:58.253Z,96982.88
2022-12-13T11:34:37.142Z,96978.03
2022-12-13T11:37:17.599Z,96969.25
2022-12-13T11:39:53.671Z,96971.78
2022-12-13T11:42:33.985Z,96979.75
2022-12-13T11:45:09.291Z,96964.13
2022-12-13T11:47:44.932Z,96960.69
2022-12-13T11:50:22.118Z,96968.16
2022-12-13T11:53:19.642Z,96953.97
2022-12-13T11:55:55.285Z,96961.69
2022-12-13T11:59:01.093Z,96959.84
2022-12-13T12:01:25.378Z,96949.84
2022-12-13T12:04:15.745Z,96959.63
2022-12-13T12:06:51.166Z,96944.31
2022-12-13T12:09:22.272Z,96933.69
2022-12-13T12:11:57.476Z,96925.91
2022-12-13T12:14:38.922Z,96920.72
2022-12-13T12:17:07.943Z,96928.38
2022-12-13T12:19:43.226Z,96931.63
2022-12-13T12:22:24.093Z,96933.31
2022-12-13T12:25:17.691Z,96921.28
2022-12-13T12:27:56.034Z,96928.88
2022-12-13T12:30:28.442Z,96914.97
2022-12-13T12:33:08.190Z,96924.78
2022-12-13T12:36:06.984Z,96928.22
2022-12-13T12:39:12.897Z,96914.50
2022-12-13T12:42:00.272Z,96913.75
2022-12-13T12:44:43.306Z,96906.66
2022-12-13T12:48:26.313Z,96915.28
2022-12-13T12:50:32.339Z,96928.88
2022-12-13T12:53:13.641Z,96906.88
2022-12-13T12:55:53.024Z,96914.56
2022-12-13T12:58:29.764Z,96901.63
2022-12-13T13:01:14.979Z,96913.75
2022-12-13T13:03:45.863Z,96898.00
2022-12-13T13:06:18.821Z,96908.59
2022-12-13T13:08:57.234Z,96912.28
2022-12-13T13:11:28.924Z,96908.31
2022-12-13T13:14:08.771Z,96923.66
2022-12-13T13:16:40.141Z,96919.34
2022-12-13T13:19:44.689Z,96906.78
2022-12-13T13:22:44.302Z,96904.34
2022-12-13T13:25:29.194Z,96910.03
2022-12-13T13:28:15.754Z,96908.78
2022-12-13T13:31:04.251Z,96916.97
2022-12-13T13:33:48.938Z,96915.75
2022-12-13T13:36:48.663Z,96916.31
2022-12-13T13:39:19.787Z,96878.44
2022-12-13T13:42:12.647Z,96918.75
2022-12-13T13:44:58.252Z,96915.94
2022-12-13T13:47:52.729Z,96919.06
2022-12-13T13:50:54.373Z,96910.94
2022-12-13T13:54:01.917Z,96913.69
2022-12-13T13:57:05.077Z,96911.34
2022-12-13T14:00:16.486Z,96924.78
2022-12-13T14:03:34.509Z,96927.38
2022-12-13T14:06:41.811Z,96922.28
2022-12-13T14:09:30.953Z,96914.41
2022-12-13T14:12:28.432Z,96925.72
2022-12-13T14:15:24.949Z,96915.63
2022-12-13T14:18:29.895Z,96907.06
2022-12-13T14:21:10.319Z,96898.63
2022-12-13T14:23:52.852Z,96907.19
2022-12-13T14:26:38.299Z,96894.38
2022-12-13T14:29:13.708Z,96879.81
2022-12-13T14:31:44.747Z,96895.44
2022-12-13T14:34:23.663Z,96895.25
2022-12-13T14:37:01.886Z,96894.31
2022-12-13T14:39:31.302Z,96907.72
2022-12-13T14:42:01.563Z,96902.97
2022-12-13T14:44:31.312Z,96889.16
2022-12-13T14:47:02.612Z,96885.28
2022-12-13T14:49:33.823Z,96880.59
2022-12-13T14:52:08.026Z,96882.66
2022-12-13T14:54:46.229Z,96892.50
2022-12-13T14:57:20.002Z,96869.63
2022-12-13T14:59:50.430Z,96882.03
2022-12-13T15:02:30.962Z,96889.25
2022-12-13T15:05:01.661Z,96878.03
2022-12-13T15:07:34.827Z,96889.63
2022-12-13T15:10:05.907Z,96892.19
2022-12-13T15:12:34.542Z,96887.03
2022-12-13T15:15:05.374Z,96880.69
2022-12-13T15:17:35.859Z,96889.09
2022-12-13T15:20:22.970Z,96889.34
2022-12-13T15:22:59.993Z,96891.41
2022-12-13T15:25:29.018Z,96882.44
2022-12-13T15:27:58.350Z,96900.50
2022-12-13T15:30:30.577Z,96898.53
2022-12-13T15:33:08.471Z,96898.66
2022-12-13T15:35:38.125Z,96901.41
2022-12-13T15:38:28.125Z,96898.25
2022-12-13T15:40:58.323Z,96906.34
2022-12-13T15:43:33.309Z,96909.91
2022-12-13T15:46:02.037Z,96911.31
2022-12-13T15:48:34.287Z,96909.22
2022-12-13T15:51:12.831Z,96906.78
2022-12-13T15:54:03.459Z,96902.38
2022-12-13T15:56:34.139Z,96920.47
2022-12-13T15:59:04.290Z,96917.38
2022-12-13T16:01:37.862Z,96914.47
2022-12-13T16:04:07.746Z,96890.38
2022-12-13T16:06:37.072Z,96913.63
2022-12-13T16:09:09.576Z,96909.38
2022-12-13T16:11:48.986Z,96901.78
2022-12-13T16:14:48.954Z,96904.97
2022-12-13T16:17:24.837Z,96893.13
2022-12-13T16:22:59.921Z,96891.41
2022-12-13T16:25:30.597Z,96877.44
2022-12-13T16:27:59.645Z,96879.22
2022-12-13T16:30:29.850Z,96879.34
2022-12-13T16:35:48.517Z,96878.63
2022-12-13T16:38:26.596Z,96881.94
2022-12-13T16:41:08.975Z,96881.22
2022-12-13T16:43:41.895Z,96863.75
2022-12-13T16:47:12.820Z,96864.75
2022-12-13T16:49:07.264Z,96846.00
2022-12-13T16:51:35.791Z,96852.97
2022-12-13T16:54:05.035Z,96857.34
2022-12-13T16:56:35.000Z,96860.72
2022-12-13T16:59:04.143Z,96867.63
2022-12-13T17:01:33.082Z,96852.66
2022-12-13T17:04:10.381Z,96851.81
2022-12-13T17:06:41.989Z,96847.63
2022-12-13T17:09:10.690Z,96852.09
2022-12-13T17:11:40.690Z,96864.63
2022-12-13T17:14:09.695Z,96846.41
2022-12-13T17:16:38.830Z,96856.09
2022-12-13T17:19:07.828Z,96855.59
2022-12-13T17:21:36.560Z,96861.06
2022-12-13T17:24:05.018Z,96856.22
2022-12-13T17:26:33.896Z,96851.69
2022-12-13T17:29:05.116Z,96853.19
2022-12-13T17:31:36.097Z,96847.41
2022-12-13T17:34:05.753Z,96842.81
2022-12-13T17:36:34.357Z,96851.19
2022-12-13T17:39:03.078Z,96845.69
2022-12-13T17:41:31.408Z,96839.75
2022-12-13T17:44:02.278Z,96846.91
2022-12-13T17:46:32.453Z,96828.84
2022-12-13T17:49:01.310Z,96840.34
2022-12-13T17:51:30.306Z,96837.88
2022-12-13T17:53:58.455Z,96837.47
2022-12-13T17:56:27.057Z,96828.66
2022-12-13T17:58:55.680Z,96835.22
2022-12-13T18:01:25.898Z,96829.84
2022-12-13T18:03:58.565Z,96832.31
2022-12-13T18:06:27.394Z,96845.00
2022-12-13T18:08:55.944Z,96842.53
2022-12-13T18:11:32.940Z,96840.44
2022-12-13T18:14:02.382Z,96846.03
2022-12-13T18:16:36.377Z,96831.72
2022-12-13T18:19:08.608Z,96826.09
2022-12-13T18:21:37.310Z,96825.50
2022-12-13T18:24:07.113Z,96817.06
2022-12-13T18:26:35.557Z,96825.75
2022-12-13T18:29:04.539Z,96824.03
2022-12-13T18:31:33.231Z,96823.38
2022-12-13T18:34:01.703Z,96828.69
2022-12-13T18:36:31.365Z,96827.00
2022-12-13T18:39:00.102Z,96827.88
2022-12-13T18:41:30.156Z,96828.06
2022-12-13T18:44:00.981Z,96829.09
2022-12-13T18:46:30.344Z,96827.31
2022-12-13T18:48:59.749Z,96825.50
2022-12-13T18:51:29.326Z,96828.78
2022-12-13T18:54:00.109Z,96826.16
2022-12-13T18:56:28.448Z,96831.16
2022-12-13T18:58:58.923Z,96821.47
2022-12-13T19:01:28.856Z,96817.19
2022-12-13T19:03:58.019Z,96812.59
2022-12-13T19:06:28.897Z,96813.34
2022-12-13T19:08:59.408Z,96822.44
2022-12-13T19:11:30.609Z,96825.66
2022-12-13T19:13:59.432Z,96820.69
2022-12-13T19:16:28.354Z,96815.00
2022-12-13T19:18:57.227Z,96822.97
2022-12-13T19:21:27.503Z,96825.94
2022-12-13T19:23:58.144Z,96826.91
2022-12-13T19:26:29.774Z,96836.78
2022-12-13T19:28:59.366Z,96832.63
2022-12-13T19:31:32.255Z,96823.06
2022-12-13T19:34:02.522Z,96792.56
2022-12-13T19:36:33.899Z,96812.78
2022-12-13T19:39:02.607Z,96808.41
2022-12-13T19:41:33.921Z,96807.53
2022-12-13T19:44:05.143Z,96806.59
2022-12-13T19:46:33.955Z,96807.63
2022-12-13T19:49:02.932Z,96804.19
2022-12-13T19:51:37.539Z,96807.84
2022-12-13T19:54:08.171Z,96803.97
2022-12-13T19:56:38.637Z,96792.59
2022-12-13T19:59:11.417Z,96805.81
2022-12-13T20:01:43.177Z,96795.06
2022-12-13T20:04:15.680Z,96788.88
2022-12-13T20:06:44.419Z,96792.47
2022-12-13T20:09:13.516Z,96787.22
2022-12-13T20:11:43.373Z,96778.56
2022-12-13T20:14:11.896Z,96773.06
2022-12-13T20:16:41.949Z,96776.00
2022-12-13T20:19:11.975Z,96782.66
2022-12-13T20:21:40.143Z,96770.16
2022-12-13T20:24:09.071Z,96763.16
2022-12-13T20:26:37.374Z,96763.09
2022-12-13T20:29:07.326Z,96760.88
2022-12-13T20:31:38.689Z,96758.44
2022-12-13T20:34:10.397Z,96774.88
2022-12-13T20:36:39.037Z,96779.31
2022-12-13T20:39:08.705Z,96776.56
2022-12-13T20:41:37.814Z,96773.75
2022-12-13T20:44:09.981Z,96773.06
2022-12-13T20:46:38.281Z,96761.75
2022-12-13T20:49:09.039Z,96766.06
2022-12-13T20:51:38.371Z,96769.97
2022-12-13T20:54:06.874Z,96754.50
2022-12-13T20:56:36.815Z,96756.03
2022-12-13T20:59:09.983Z,96750.84
2022-12-13T21:01:41.087Z,96750.16
2022-12-13T21:04:12.929Z,96743.41
2022-12-13T21:06:43.659Z,96750.19
2022-12-13T21:09:13.297Z,96750.25
2022-12-13T21:11:47.405Z,96734.94
2022-12-13T21:14:22.405Z,96754.50
2022-12-13T21:16:53.426Z,96755.38
2022-12-13T21:19:24.553Z,96748.16
2022-12-13T21:21:54.232Z,96745.06
2022-12-13T21:24:24.897Z,96742.69
2022-12-13T21:26:56.544Z,96734.22
2022-12-13T21:29:27.019Z,96726.25
2022-12-13T21:31:55.387Z,96722.84
2022-12-13T21:34:24.831Z,96700.22
2022-12-13T21:36:54.353Z,96717.56
2022-12-13T21:39:25.137Z,96710.16
2022-12-13T21:41:54.716Z,96710.69
2022-12-13T21:44:23.616Z,96695.03
2022-12-13T21:49:48.245Z,96698.16
2022-12-13T21:52:17.556Z,96707.78
2022-12-13T21:55:15.289Z,96709.38
2022-12-13T21:58:01.849Z,96712.22
2022-12-13T22:00:38.438Z,96709.16
2022-12-13T22:03:08.133Z,96708.16
2022-12-13T22:05:36.997Z,96688.09
2022-12-13T22:08:05.789Z,96696.88
2022-12-13T22:10:34.429Z,96690.09
2022-12-13T22:13:04.002Z,96681.03
2022-12-13T22:15:32.592Z,96690.75
2022-12-13T22:18:00.870Z,96687.09
2022-12-13T22:20:30.788Z,96691.59
2022-12-13T22:22:59.161Z,96699.53
2022-12-13T22:25:27.555Z,96693.16
2022-12-13T22:27:56.032Z,96685.63
2022-12-13T22:30:26.303Z,96678.34
2022-12-13T22:32:54.644Z,96695.47
2022-12-13T22:35:23.598Z,96695.66
2022-12-13T22:37:58.801Z,96686.53
2022-12-13T22:40:29.691Z,96683.47
2022-12-13T22:42:57.687Z,96688.22
2022-12-13T22:45:26.438Z,96694.03
2022-12-13T22:47:54.786Z,96679.28
2022-12-13T22:50:24.551Z,96680.25
2022-12-13T22:52:54.438Z,96671.75
2022-12-13T22:55:22.926Z,96669.47
2022-12-13T22:57:51.296Z,96662.50
2022-12-13T23:00:20.494Z,96647.19
2022-12-13T23:02:49.116Z,96658.28
2022-12-13T23:05:18.797Z,96648.47
2022-12-13T23:07:48.726Z,96641.22
2022-12-13T23:10:50.971Z,96644.34
2022-12-13T23:13:19.726Z,96639.28
2022-12-13T23:15:49.651Z,96645.19
2022-12-13T23:18:17.951Z,96614.13
2022-12-13T23:20:48.419Z,96605.00
2022-12-13T23:23:16.912Z,96609.06
2022-12-13T23:25:48.971Z,96609.28
2022-12-13T23:28:18.232Z,96590.25
2022-12-13T23:30:46.272Z,96591.97
2022-12-13T23:33:14.399Z,96589.81
2022-12-13T23:35:42.608Z,96594.41
2022-12-13T23:38:10.540Z,96588.75
2022-12-13T23:40:38.864Z,96583.47
2022-12-13T23:43:08.862Z,96602.19
2022-12-13T23:45:37.059Z,96582.09
2022-12-13T23:48:05.415Z,96579.25
2022-12-13T23:50:34.028Z,96581.09
2022-12-13T23:53:02.134Z,96555.34
2022-12-13T23:55:30.430Z,96551.34
2022-12-13T23:57:58.948Z,96562.38
